Time;durP1;ratioP1;P1;durP2;ratioP2;P2;SDS_P1;SDS_P2;PMS_P1;PMS_P2;Temp;Humidity;BMP_temperature;BMP_pressure;BME280_temperature;BME280_humidity;BME280_pressure;Samples;Min_cycle;Max_cycle;Signal;HPM_P1;HPM_P2
2023/12/03 00:02:11;;;;;;;6.75;3.05;;;1.80;99.90;;;;;;5006288;28;20037;-60
2023/12/03 00:04:37;;;;;;;5.25;3.15;;;1.80;99.90;;;;;;5024673;28;20459;-60
2023/12/03 00:07:03;;;;;;;6.38;3.50;;;1.80;99.90;;;;;;5009385;28;20091;-60
2023/12/03 00:09:29;;;;;;;7.15;4.75;;;1.80;99.90;;;;;;5017097;28;20049;-60
2023/12/03 00:11:54;;;;;;;5.97;3.83;;;1.90;99.90;;;;;;5007158;28;20096;-60
2023/12/03 00:14:20;;;;;;;9.23;5.60;;;1.90;99.90;;;;;;5025597;28;20053;-60
2023/12/03 00:16:46;;;;;;;6.32;3.75;;;1.90;99.90;;;;;;5024032;28;20145;-60
2023/12/03 00:19:12;;;;;;;6.53;4.20;;;1.80;99.90;;;;;;5037077;28;20657;-60
2023/12/03 00:21:38;;;;;;;6.88;4.00;;;1.90;99.90;;;;;;5023627;28;20049;-60
2023/12/03 00:24:04;;;;;;;7.40;4.03;;;1.90;99.90;;;;;;5020863;28;20045;-59
2023/12/03 00:26:30;;;;;;;5.82;3.00;;;1.90;99.90;;;;;;5021090;28;20788;-60
2023/12/03 00:28:55;;;;;;;4.72;3.13;;;1.90;99.90;;;;;;5022207;28;20076;-60
2023/12/03 00:31:21;;;;;;;6.35;2.97;;;1.90;99.90;;;;;;5003621;28;20420;-60
2023/12/03 00:33:47;;;;;;;4.35;2.40;;;1.90;99.90;;;;;;5027638;28;20068;-60
2023/12/03 00:36:13;;;;;;;5.15;2.75;;;1.90;99.90;;;;;;5030262;28;20041;-60
2023/12/03 00:38:38;;;;;;;6.07;3.53;;;1.90;99.90;;;;;;5024323;28;20087;-60
2023/12/03 00:41:04;;;;;;;5.22;3.03;;;1.90;99.90;;;;;;5046099;28;20095;-60
2023/12/03 00:43:30;;;;;;;7.28;3.47;;;1.80;99.90;;;;;;5023943;28;20069;-61
2023/12/03 00:45:57;;;;;;;6.43;3.58;;;1.80;99.90;;;;;;5011443;28;20050;-60
2023/12/03 00:48:23;;;;;;;5.82;3.15;;;1.90;99.90;;;;;;5025204;28;20056;-60
2023/12/03 00:50:49;;;;;;;6.20;2.90;;;1.90;99.90;;;;;;5024627;28;20036;-59
2023/12/03 00:53:15;;;;;;;3.92;2.40;;;1.90;99.90;;;;;;5023785;28;20044;-60
2023/12/03 00:55:41;;;;;;;2.88;1.90;;;1.90;99.90;;;;;;5006459;28;20042;-60
2023/12/03 00:58:06;;;;;;;4.35;2.58;;;1.90;99.90;;;;;;5024347;28;20048;-60
2023/12/03 01:00:32;;;;;;;3.63;2.42;;;1.90;99.90;;;;;;5022757;28;20496;-60
2023/12/03 01:02:58;;;;;;;3.88;1.85;;;1.90;99.90;;;;;;5024331;28;20068;-60
2023/12/03 01:05:23;;;;;;;4.20;2.05;;;1.90;99.90;;;;;;5006532;28;20085;-60
2023/12/03 01:07:49;;;;;;;4.15;2.00;;;1.90;99.90;;;;;;5022953;28;20044;-60
2023/12/03 01:10:15;;;;;;;4.30;2.33;;;1.90;99.90;;;;;;5027304;28;20336;-60
2023/12/03 01:12:40;;;;;;;5.32;2.40;;;1.80;99.90;;;;;;5028812;28;20048;-60
2023/12/03 01:15:07;;;;;;;3.88;2.20;;;1.80;99.90;;;;;;5013548;28;20575;-60
2023/12/03 01:17:32;;;;;;;5.78;3.78;;;1.80;99.90;;;;;;5010568;28;20102;-60
2023/12/03 01:19:58;;;;;;;5.57;2.33;;;1.80;99.90;;;;;;5011642;28;20497;-59
2023/12/03 01:22:24;;;;;;;5.15;2.80;;;1.80;99.90;;;;;;5007511;28;20124;-60
2023/12/03 01:24:49;;;;;;;3.22;2.03;;;1.80;99.90;;;;;;5020708;28;20037;-60
2023/12/03 01:27:15;;;;;;;5.97;3.03;;;1.80;99.90;;;;;;5021682;28;20041;-60
2023/12/03 01:29:42;;;;;;;4.68;2.60;;;1.80;99.90;;;;;;5019966;28;20036;-60
2023/12/03 01:32:08;;;;;;;6.60;3.50;;;1.80;99.90;;;;;;5022138;28;20097;-59
2023/12/03 01:34:33;;;;;;;4.20;2.42;;;1.80;99.90;;;;;;5037571;28;20690;-60
2023/12/03 01:36:59;;;;;;;5.22;2.35;;;1.80;99.90;;;;;;5014921;28;20056;-60
2023/12/03 01:39:25;;;;;;;4.30;2.47;;;1.70;99.90;;;;;;5020389;28;20041;-60
2023/12/03 01:41:52;;;;;;;4.10;2.60;;;1.80;99.90;;;;;;5037159;28;20136;-60
2023/12/03 01:44:18;;;;;;;5.15;2.85;;;1.80;99.90;;;;;;5007608;28;20116;-60
2023/12/03 01:46:48;;;;;;;6.05;2.33;;;1.70;99.90;;;;;;5024805;28;20297;-60
2023/12/03 01:49:14;;;;;;;4.53;2.65;;;1.70;99.90;;;;;;5023384;28;20045;-60
2023/12/03 01:51:40;;;;;;;3.55;2.35;;;1.60;99.90;;;;;;5025164;28;20364;-60
2023/12/03 01:54:06;;;;;;;3.83;2.58;;;1.60;99.90;;;;;;5022679;28;20039;-58
2023/12/03 01:56:32;;;;;;;4.93;2.80;;;1.60;99.90;;;;;;5035466;28;20034;-60
2023/12/03 01:58:58;;;;;;;3.92;2.50;;;1.60;99.90;;;;;;5019324;28;20103;-60
2023/12/03 02:01:24;;;;;;;5.45;2.90;;;1.60;99.90;;;;;;5024663;28;20034;-59
2023/12/03 02:03:49;;;;;;;4.05;2.80;;;1.60;99.90;;;;;;5021523;28;20497;-59
2023/12/03 02:06:15;;;;;;;3.88;2.70;;;1.60;99.90;;;;;;5018169;28;20037;-59
2023/12/03 02:08:41;;;;;;;4.68;2.15;;;1.60;99.90;;;;;;5022569;28;20034;-60
2023/12/03 02:11:07;;;;;;;5.20;2.92;;;1.50;99.90;;;;;;5022508;28;20384;-60
2023/12/03 02:13:36;;;;;;;3.88;2.40;;;1.50;99.90;;;;;;5023040;28;20393;-60
2023/12/03 02:16:02;;;;;;;4.05;2.38;;;1.50;99.90;;;;;;5019687;28;20045;-60
2023/12/03 02:18:29;;;;;;;6.68;3.50;;;1.40;99.90;;;;;;5010394;28;20103;-60
2023/12/03 02:20:55;;;;;;;4.82;2.80;;;1.40;99.90;;;;;;5019793;28;20044;-59
2023/12/03 02:23:21;;;;;;;4.35;2.78;;;1.30;99.90;;;;;;5022050;28;20080;-60
2023/12/03 02:25:48;;;;;;;4.45;2.85;;;1.30;99.90;;;;;;5024215;28;20080;-60
2023/12/03 02:28:14;;;;;;;4.93;3.05;;;1.30;99.90;;;;;;5005109;28;20068;-59
2023/12/03 02:30:41;;;;;;;5.82;2.95;;;1.20;99.90;;;;;;5026470;28;20488;-60
2023/12/03 02:33:06;;;;;;;4.38;2.65;;;1.20;99.90;;;;;;5022896;28;20225;-60
2023/12/03 02:35:32;;;;;;;3.95;3.00;;;1.10;99.90;;;;;;5024822;28;20584;-60
2023/12/03 02:37:58;;;;;;;6.30;2.85;;;1.10;99.90;;;;;;5022130;28;20038;-60
2023/12/03 02:40:23;;;;;;;4.95;2.85;;;1.00;99.90;;;;;;5022100;28;20045;-60
2023/12/03 02:42:49;;;;;;;3.85;2.70;;;1.00;99.90;;;;;;5003237;28;20292;-60
2023/12/03 02:45:15;;;;;;;4.63;3.10;;;0.90;99.90;;;;;;5020332;28;20049;-60
2023/12/03 02:47:40;;;;;;;4.32;2.85;;;0.90;99.90;;;;;;5009325;28;20036;-59
2023/12/03 02:50:06;;;;;;;3.67;2.63;;;0.90;99.90;;;;;;5019325;28;20026;-60
2023/12/03 02:52:32;;;;;;;3.90;2.72;;;0.90;99.90;;;;;;5022556;28;20040;-60
2023/12/03 02:54:58;;;;;;;5.38;2.97;;;0.90;99.90;;;;;;5037280;28;20033;-60
2023/12/03 02:57:23;;;;;;;3.92;2.70;;;0.90;99.90;;;;;;5018880;28;20041;-60
2023/12/03 02:59:49;;;;;;;4.68;2.50;;;0.80;99.90;;;;;;5020783;28;20057;-60
2023/12/03 03:02:15;;;;;;;4.65;2.78;;;0.80;99.90;;;;;;5021393;28;20045;-60
2023/12/03 03:04:41;;;;;;;4.57;2.78;;;0.80;99.90;;;;;;5044020;28;20035;-60
2023/12/03 03:07:07;;;;;;;3.90;2.88;;;0.70;99.90;;;;;;5004506;28;20048;-60
2023/12/03 03:09:32;;;;;;;4.53;2.97;;;0.70;99.90;;;;;;5019773;28;20497;-60
2023/12/03 03:11:58;;;;;;;3.63;2.78;;;0.70;99.90;;;;;;5002439;28;20091;-60
2023/12/03 03:14:24;;;;;;;4.25;2.83;;;0.70;99.90;;;;;;5005343;28;20492;-59
2023/12/03 03:16:50;;;;;;;6.82;3.10;;;0.70;99.90;;;;;;5039452;28;20052;-60
2023/12/03 03:19:16;;;;;;;4.45;2.95;;;0.60;99.90;;;;;;5025441;28;20077;-60
2023/12/03 03:21:42;;;;;;;3.92;2.92;;;0.70;99.90;;;;;;5023874;28;20084;-60
2023/12/03 03:24:07;;;;;;;3.92;3.08;;;0.60;99.90;;;;;;5008631;28;20447;-60
2023/12/03 03:26:33;;;;;;;4.70;3.40;;;0.60;99.90;;;;;;5011351;28;20042;-60
2023/12/03 03:28:59;;;;;;;6.03;3.40;;;0.50;99.90;;;;;;5007993;28;20087;-60
2023/12/03 03:31:25;;;;;;;5.72;3.70;;;0.60;99.90;;;;;;5007287;28;22896;-60
2023/12/03 03:33:51;;;;;;;6.28;3.65;;;0.50;99.90;;;;;;5009528;28;20436;-60
2023/12/03 03:36:17;;;;;;;5.22;3.60;;;0.50;99.90;;;;;;5006889;28;20041;-59
2023/12/03 03:38:45;;;;;;;4.85;3.47;;;0.50;99.90;;;;;;5010816;28;20037;-60
2023/12/03 03:41:11;;;;;;;4.85;3.72;;;0.50;99.90;;;;;;5007124;28;20051;-60
2023/12/03 03:43:37;;;;;;;5.07;3.42;;;0.50;99.90;;;;;;5011955;28;20041;-60
2023/12/03 03:46:03;;;;;;;7.03;3.70;;;0.50;99.90;;;;;;5018985;28;20098;-60
2023/12/03 03:48:29;;;;;;;5.43;3.47;;;0.50;99.90;;;;;;5008250;28;20041;-60
2023/12/03 03:50:55;;;;;;;4.93;3.78;;;0.40;99.90;;;;;;5025960;28;20099;-60
2023/12/03 03:53:21;;;;;;;7.13;4.32;;;0.40;99.90;;;;;;5025119;28;20548;-60
2023/12/03 03:55:47;;;;;;;6.22;4.10;;;0.40;99.90;;;;;;5036937;28;20050;-60
2023/12/03 03:58:13;;;;;;;5.13;3.90;;;0.40;99.90;;;;;;5010341;28;20041;-60
2023/12/03 04:00:39;;;;;;;5.72;4.50;;;0.40;99.90;;;;;;5019610;28;20060;-60
2023/12/03 04:03:05;;;;;;;5.95;4.70;;;0.30;99.90;;;;;;5022531;28;20049;-60
2023/12/03 04:05:30;;;;;;;7.70;5.65;;;0.40;99.90;;;;;;5025872;28;20049;-61
2023/12/03 04:07:56;;;;;;;7.40;5.10;;;0.40;99.90;;;;;;5024006;28;20037;-60
2023/12/03 04:10:22;;;;;;;7.43;5.07;;;0.40;99.90;;;;;;5007093;28;20400;-60
2023/12/03 04:12:48;;;;;;;10.40;5.68;;;0.40;99.90;;;;;;5023319;28;20036;-59
2023/12/03 04:15:14;;;;;;;8.50;5.95;;;0.40;99.90;;;;;;5021659;28;20110;-60
2023/12/03 04:17:39;;;;;;;6.93;5.40;;;0.40;99.90;;;;;;5021771;28;20064;-59
2023/12/03 04:20:06;;;;;;;10.15;6.55;;;0.30;99.90;;;;;;5022434;28;20483;-60
2023/12/03 04:22:32;;;;;;;8.35;6.65;;;0.30;99.90;;;;;;5022157;28;20296;-60
2023/12/03 04:24:58;;;;;;;7.47;5.95;;;0.30;99.90;;;;;;5012930;28;20081;-59
2023/12/03 04:27:25;;;;;;;10.10;7.00;;;0.30;99.90;;;;;;5006184;28;20065;-60
2023/12/03 04:29:50;;;;;;;12.23;7.13;;;0.30;99.90;;;;;;5021783;28;20484;-60
2023/12/03 04:32:16;;;;;;;10.20;7.30;;;0.30;99.90;;;;;;5002288;28;20049;-58
2023/12/03 04:34:42;;;;;;;11.20;8.02;;;0.30;99.90;;;;;;5021110;28;20475;-59
2023/12/03 04:37:07;;;;;;;10.75;7.43;;;0.30;99.90;;;;;;5019755;28;20044;-59
2023/12/03 04:39:34;;;;;;;10.43;7.40;;;0.30;99.90;;;;;;5004025;28;20111;-59
2023/12/03 04:42:00;;;;;;;9.88;7.07;;;0.30;99.90;;;;;;5026248;28;20041;-59
2023/12/03 04:44:27;;;;;;;11.65;7.95;;;0.30;99.90;;;;;;5021012;28;20136;-59
2023/12/03 04:46:53;;;;;;;15.38;8.30;;;0.30;99.90;;;;;;5028858;28;20492;-59
2023/12/03 04:49:19;;;;;;;13.90;9.30;;;0.30;99.90;;;;;;5037305;28;20060;-59
2023/12/03 04:51:44;;;;;;;14.75;9.13;;;0.30;99.90;;;;;;5021781;28;20541;-59
2023/12/03 04:54:10;;;;;;;16.58;10.02;;;0.30;99.90;;;;;;4992478;28;20029;-58
2023/12/03 04:56:36;;;;;;;13.68;8.82;;;0.30;99.90;;;;;;5021555;28;20041;-60
2023/12/03 04:59:02;;;;;;;13.18;8.55;;;0.30;99.90;;;;;;5009411;28;20104;-59
2023/12/03 05:01:28;;;;;;;12.82;8.50;;;0.40;99.90;;;;;;5007833;28;20044;-59
2023/12/03 05:03:54;;;;;;;11.20;7.90;;;0.40;99.90;;;;;;5020848;28;20394;-59
2023/12/03 05:06:19;;;;;;;12.52;7.68;;;0.30;99.90;;;;;;4985811;28;20095;-58
2023/12/03 05:08:45;;;;;;;13.18;8.80;;;0.40;99.90;;;;;;5018151;28;20195;-59
2023/12/03 05:11:11;;;;;;;11.93;8.60;;;0.30;99.90;;;;;;5025239;28;20475;-58
2023/12/03 05:13:36;;;;;;;13.50;8.57;;;0.40;99.90;;;;;;5022769;28;20329;-59
2023/12/03 05:16:06;;;;;;;13.75;9.30;;;0.30;99.90;;;;;;5009072;28;20034;-59
2023/12/03 05:18:32;;;;;;;15.77;9.93;;;0.30;99.90;;;;;;5020316;28;20041;-59
2023/12/03 05:20:58;;;;;;;14.60;9.98;;;0.30;99.90;;;;;;5022362;28;20054;-59
2023/12/03 05:23:25;;;;;;;12.52;8.30;;;0.30;99.90;;;;;;5019771;28;20088;-58
2023/12/03 05:25:51;;;;;;;14.73;10.10;;;0.40;99.90;;;;;;5021546;28;20038;-59
2023/12/03 05:28:17;;;;;;;14.30;9.20;;;0.30;99.90;;;;;;5025407;28;20038;-59
2023/12/03 05:30:43;;;;;;;16.15;9.93;;;0.40;99.90;;;;;;5024447;28;20092;-58
2023/12/03 05:33:10;;;;;;;38.75;12.18;;;0.40;99.90;;;;;;5006331;28;20041;-58
2023/12/03 05:35:35;;;;;;;25.08;10.32;;;0.40;99.90;;;;;;5024544;28;20099;-59
2023/12/03 05:38:01;;;;;;;20.30;9.98;;;0.50;99.90;;;;;;5021113;28;20560;-59
2023/12/03 05:40:27;;;;;;;27.40;9.90;;;0.40;99.90;;;;;;5006178;28;20049;-60
2023/12/03 05:42:52;;;;;;;61.83;12.95;;;0.40;99.90;;;;;;5022311;28;20523;-58
2023/12/03 05:45:18;;;;;;;63.70;12.10;;;0.40;99.90;;;;;;5021238;28;20171;-59
2023/12/03 05:47:44;;;;;;;72.65;14.65;;;0.40;99.90;;;;;;5037311;28;20133;-59
2023/12/03 05:50:09;;;;;;;72.80;12.93;;;0.40;99.90;;;;;;5021362;28;20488;-59
2023/12/03 05:52:35;;;;;;;49.70;12.65;;;0.40;99.90;;;;;;5007191;28;20038;-60
2023/12/03 05:55:01;;;;;;;65.35;13.05;;;0.40;99.90;;;;;;5020368;28;20045;-59
2023/12/03 05:57:27;;;;;;;77.70;14.05;;;0.30;99.90;;;;;;5024557;28;20444;-59
2023/12/03 05:59:53;;;;;;;59.60;12.13;;;0.30;99.90;;;;;;5039687;28;20605;-59
2023/12/03 06:02:20;;;;;;;83.38;13.30;;;0.30;99.90;;;;;;5014209;28;20044;-59
2023/12/03 06:04:46;;;;;;;29.42;10.43;;;0.20;99.90;;;;;;5026335;28;20045;-59
2023/12/03 06:07:12;;;;;;;42.75;12.25;;;0.20;99.90;;;;;;5015075;28;20102;-60
2023/12/03 06:09:38;;;;;;;71.15;14.63;;;0.20;99.90;;;;;;5019367;28;20030;-60
2023/12/03 06:12:04;;;;;;;35.88;11.95;;;0.20;99.90;;;;;;5023030;28;20060;-59
2023/12/03 06:14:31;;;;;;;67.40;14.70;;;0.20;99.90;;;;;;5016759;28;20052;-60
2023/12/03 06:16:57;;;;;;;40.88;12.70;;;0.10;99.90;;;;;;5023518;28;20076;-59
2023/12/03 06:19:22;;;;;;;38.58;13.45;;;0.20;99.90;;;;;;5022076;28;20081;-59
2023/12/03 06:21:48;;;;;;;78.22;16.65;;;0.20;99.90;;;;;;5018870;28;20098;-60
2023/12/03 06:24:14;;;;;;;38.67;15.93;;;0.20;99.90;;;;;;5023027;28;20058;-59
2023/12/03 06:26:39;;;;;;;52.30;16.50;;;0.20;99.90;;;;;;4981705;28;20069;-58
2023/12/03 06:29:05;;;;;;;55.38;15.75;;;0.20;99.90;;;;;;5024111;28;20057;-59
2023/12/03 06:31:32;;;;;;;86.90;20.05;;;0.30;99.90;;;;;;5005607;28;20049;-59
2023/12/03 06:33:58;;;;;;;81.55;21.23;;;0.30;99.90;;;;;;5001233;28;20036;-58
2023/12/03 06:36:25;;;;;;;85.00;20.20;;;0.30;99.90;;;;;;5021878;28;20049;-57
2023/12/03 06:38:51;;;;;;;84.88;21.10;;;0.30;99.90;;;;;;5018378;28;20496;-59
2023/12/03 06:41:17;;;;;;;75.60;20.95;;;0.40;99.90;;;;;;5020655;28;20044;-58
2023/12/03 06:43:43;;;;;;;89.75;22.38;;;0.50;99.90;;;;;;5021645;28;20971;-59
2023/12/03 06:46:08;;;;;;;118.50;24.10;;;0.40;99.90;;;;;;4997958;28;20505;-59
2023/12/03 06:48:34;;;;;;;63.08;20.70;;;0.50;99.90;;;;;;5021686;28;20131;-60
2023/12/03 06:51:00;;;;;;;62.83;20.10;;;0.50;99.90;;;;;;5018214;28;20041;-59
2023/12/03 06:53:25;;;;;;;84.75;22.80;;;0.60;99.90;;;;;;5022805;28;20102;-59
2023/12/03 06:59:32;;;;;;;73.22;22.50;;;0.70;99.90;;;;;;5018934;28;20048;-59
2023/12/03 07:01:58;;;;;;;73.53;22.48;;;0.70;99.90;;;;;;5021156;28;20345;-59
2023/12/03 07:04:23;;;;;;;80.85;23.08;;;0.80;99.90;;;;;;5041890;28;20064;-59
2023/12/03 07:06:49;;;;;;;76.72;23.13;;;0.80;99.90;;;;;;5008387;28;20502;-60
2023/12/03 07:09:15;;;;;;;65.88;23.30;;;0.80;99.90;;;;;;5026895;28;20033;-59
2023/12/03 07:11:40;;;;;;;87.75;25.15;;;0.90;99.90;;;;;;5027566;28;20083;-59
2023/12/03 07:14:09;;;;;;;72.00;23.45;;;0.90;99.90;;;;;;5026396;28;20040;-59
2023/12/03 07:16:35;;;;;;;67.68;25.65;;;1.00;99.90;;;;;;5023177;28;20409;-59
2023/12/03 07:19:01;;;;;;;74.75;24.55;;;1.00;99.90;;;;;;5012455;28;20070;-60
2023/12/03 07:21:26;;;;;;;66.13;23.88;;;1.10;99.90;;;;;;5029740;28;20459;-60
2023/12/03 07:23:52;;;;;;;68.00;25.50;;;1.10;99.90;;;;;;5027375;28;20041;-60
2023/12/03 07:26:18;;;;;;;69.80;24.85;;;1.10;99.90;;;;;;5019777;28;20116;-59
2023/12/03 07:28:43;;;;;;;90.97;26.73;;;1.20;99.90;;;;;;5028055;28;20041;-58
2023/12/03 07:31:09;;;;;;;72.32;25.52;;;1.20;99.90;;;;;;5027314;28;20470;-60
2023/12/03 07:33:35;;;;;;;68.13;24.17;;;1.20;99.90;;;;;;5027534;28;20034;-59
2023/12/03 07:36:01;;;;;;;71.40;25.52;;;1.30;99.90;;;;;;5005781;28;20045;-59
2023/12/03 07:38:28;;;;;;;85.20;26.63;;;1.30;99.90;;;;;;5027342;28;20045;-58
2023/12/03 07:40:53;;;;;;;77.32;26.38;;;1.30;99.90;;;;;;5021761;28;20064;-60
2023/12/03 07:43:19;;;;;;;75.25;25.75;;;1.30;99.90;;;;;;5029707;28;20125;-60
2023/12/03 07:45:45;;;;;;;79.70;25.30;;;1.40;99.90;;;;;;5007310;28;20037;-60
2023/12/03 07:48:11;;;;;;;83.25;26.20;;;1.40;99.90;;;;;;5028292;28;20041;-60
2023/12/03 07:50:36;;;;;;;81.18;25.90;;;1.50;99.90;;;;;;5026953;28;20530;-60
2023/12/03 07:53:03;;;;;;;88.95;27.48;;;1.40;99.90;;;;;;5028915;28;20067;-60
2023/12/03 07:55:29;;;;;;;81.60;24.58;;;1.60;99.90;;;;;;5026234;28;20041;-60
2023/12/03 07:57:54;;;;;;;82.07;26.30;;;1.50;99.90;;;;;;5016009;28;20381;-60
2023/12/03 08:00:29;;;;;;;94.00;28.27;;;1.50;99.90;;;;;;5026528;28;20045;-60
2023/12/03 08:02:55;;;;;;;86.45;28.15;;;1.50;99.90;;;;;;5033548;28;20485;-60
2023/12/03 08:05:21;;;;;;;80.47;25.95;;;1.60;99.90;;;;;;4988679;28;20107;-60
2023/12/03 08:07:46;;;;;;;83.53;28.15;;;1.60;99.90;;;;;;5010819;28;20192;-61
2023/12/03 08:10:12;;;;;;;88.00;28.13;;;1.60;99.90;;;;;;5022297;28;20041;-60
2023/12/03 08:12:38;;;;;;;79.97;25.55;;;1.60;99.90;;;;;;5023754;28;20040;-60
2023/12/03 08:15:04;;;;;;;92.30;28.00;;;1.70;99.90;;;;;;5011005;28;20033;-60
2023/12/03 08:17:29;;;;;;;87.22;25.67;;;1.60;99.90;;;;;;5011732;28;20037;-60
2023/12/03 08:19:55;;;;;;;87.72;27.30;;;1.70;99.90;;;;;;5028613;28;20063;-60
2023/12/03 08:22:21;;;;;;;96.30;29.65;;;1.70;99.90;;;;;;5007309;28;20037;-60
2023/12/03 08:24:46;;;;;;;100.13;28.55;;;1.70;99.90;;;;;;5009084;28;20037;-60
2023/12/03 08:27:12;;;;;;;106.70;30.13;;;1.70;99.90;;;;;;5027112;28;20765;-60
2023/12/03 08:29:38;;;;;;;93.38;28.27;;;1.70;99.90;;;;;;5026026;28;20092;-60
2023/12/03 08:32:04;;;;;;;105.93;29.70;;;1.70;99.90;;;;;;5026875;28;20084;-60
2023/12/03 08:34:30;;;;;;;108.22;31.42;;;1.70;99.90;;;;;;5010269;28;20077;-60
2023/12/03 08:36:55;;;;;;;136.35;34.97;;;1.70;99.90;;;;;;5026990;28;20055;-60
2023/12/03 08:39:21;;;;;;;102.43;28.98;;;1.80;99.90;;;;;;5025662;28;20163;-60
2023/12/03 08:41:47;;;;;;;91.63;30.23;;;1.80;99.90;;;;;;5026664;28;20037;-60
2023/12/03 08:44:12;;;;;;;105.95;31.40;;;1.80;99.90;;;;;;5011103;28;20701;-60
2023/12/03 08:46:38;;;;;;;109.68;33.53;;;1.80;99.90;;;;;;5008310;28;20085;-60
2023/12/03 08:49:04;;;;;;;91.85;30.73;;;1.80;99.90;;;;;;5028305;28;20038;-60
2023/12/03 08:51:30;;;;;;;92.97;31.38;;;1.80;99.90;;;;;;5028821;28;20071;-60
2023/12/03 08:53:55;;;;;;;101.05;32.83;;;1.80;99.90;;;;;;5023167;28;20029;-60
2023/12/03 08:56:21;;;;;;;99.95;32.47;;;1.90;99.90;;;;;;5022612;28;20049;-60
2023/12/03 08:58:47;;;;;;;92.88;31.92;;;1.90;99.90;;;;;;5017665;28;20501;-59
2023/12/03 09:01:12;;;;;;;93.30;33.55;;;1.90;99.90;;;;;;5008106;28;20374;-60
2023/12/03 09:03:40;;;;;;;98.15;33.88;;;1.90;99.90;;;;;;5038278;28;20033;-60
2023/12/03 09:06:06;;;;;;;88.97;34.25;;;1.90;99.90;;;;;;5010998;28;20084;-60
2023/12/03 09:08:33;;;;;;;94.00;37.67;;;1.90;99.90;;;;;;5008916;28;20187;-58
2023/12/03 09:10:59;;;;;;;93.07;38.10;;;1.90;99.90;;;;;;5024390;28;20068;-60
2023/12/03 09:13:25;;;;;;;94.90;39.30;;;1.90;99.90;;;;;;5018834;28;20095;-59
2023/12/03 09:15:51;;;;;;;92.07;40.83;;;1.90;99.90;;;;;;5035809;28;20038;-60
2023/12/03 09:18:17;;;;;;;91.95;40.50;;;1.90;99.90;;;;;;5020990;28;20084;-60
2023/12/03 09:20:43;;;;;;;84.50;38.67;;;1.90;99.90;;;;;;5019391;28;20279;-60
2023/12/03 09:23:08;;;;;;;90.95;40.53;;;1.90;99.90;;;;;;4992137;28;20404;-60
2023/12/03 09:25:34;;;;;;;92.70;41.75;;;2.00;99.90;;;;;;5024307;28;20079;-60
2023/12/03 09:28:00;;;;;;;93.53;41.58;;;2.00;99.90;;;;;;5027765;28;20075;-60
2023/12/03 09:30:25;;;;;;;89.97;40.95;;;2.00;99.90;;;;;;5010177;28;20357;-61
2023/12/03 09:32:51;;;;;;;90.85;40.53;;;2.00;99.90;;;;;;5030962;28;20551;-61
2023/12/03 09:35:17;;;;;;;79.72;39.33;;;2.10;99.90;;;;;;5022721;28;20276;-60
2023/12/03 09:37:42;;;;;;;77.80;38.22;;;2.10;99.90;;;;;;5023890;28;20554;-60
2023/12/03 09:40:09;;;;;;;81.90;39.90;;;2.10;99.90;;;;;;5007394;28;20037;-60
2023/12/03 09:42:36;;;;;;;81.97;40.90;;;2.20;99.90;;;;;;5024292;28;20171;-60
2023/12/03 09:45:04;;;;;;;101.20;52.78;;;2.20;99.90;;;;;;5029990;28;20087;-60
2023/12/03 09:47:37;;;;;;;90.82;46.90;;;2.20;99.90;;;;;;5024940;28;20037;-60
2023/12/03 09:50:06;;;;;;;84.80;44.00;;;2.20;99.90;;;;;;5001878;28;20029;-60
2023/12/03 09:52:35;;;;;;;75.38;38.45;;;2.20;99.90;;;;;;5026310;28;20041;-60
2023/12/03 09:55:02;;;;;;;78.97;40.28;;;2.30;99.90;;;;;;5006983;28;20200;-60
2023/12/03 09:57:29;;;;;;;80.40;42.55;;;2.30;99.90;;;;;;4994681;28;20511;-60
2023/12/03 10:00:05;;;;;;;75.43;41.28;;;2.40;99.90;;;;;;5040087;28;20080;-61
2023/12/03 10:02:33;;;;;;;71.07;38.88;;;2.40;99.90;;;;;;5027645;28;20106;-59
2023/12/03 10:04:59;;;;;;;77.70;40.35;;;2.50;99.90;;;;;;5017366;28;20524;-61
2023/12/03 10:07:29;;;;;;;84.93;52.97;;;2.50;99.90;;;;;;5013500;28;20049;-60
2023/12/03 10:10:00;;;;;;;79.78;47.25;;;2.60;99.90;;;;;;5001806;28;20085;-60
2023/12/03 10:12:32;;;;;;;72.85;41.15;;;2.70;99.90;;;;;;4996244;28;20038;-61
2023/12/03 10:15:00;;;;;;;71.15;38.67;;;2.70;99.90;;;;;;5009213;28;20049;-59
2023/12/03 10:17:27;;;;;;;59.88;35.40;;;2.70;99.90;;;;;;5004796;28;20056;-61
2023/12/03 10:19:53;;;;;;;60.75;34.67;;;2.80;99.90;;;;;;5026081;28;20100;-61
2023/12/03 10:22:31;;;;;;;64.20;36.60;;;2.80;99.90;;;;;;5026849;28;20527;-59
2023/12/03 10:24:57;;;;;;;63.80;39.75;;;2.80;99.90;;;;;;5020911;28;20041;-61
2023/12/03 10:27:29;;;;;;;64.75;39.67;;;2.70;99.90;;;;;;5017922;28;20522;-61
2023/12/03 10:29:55;;;;;;;66.30;39.72;;;2.80;99.90;;;;;;5034279;28;20041;-61
2023/12/03 10:32:22;;;;;;;60.53;35.47;;;2.80;99.90;;;;;;5026864;28;20052;-63
2023/12/03 10:35:19;;;;;;;59.35;33.33;;;2.80;99.90;;;;;;5055508;28;20395;-64
2023/12/03 10:37:45;;;;;;;62.80;34.70;;;2.80;99.90;;;;;;5023289;28;20126;-63
2023/12/03 10:40:11;;;;;;;56.88;34.10;;;2.80;99.90;;;;;;5024647;28;20091;-63
2023/12/03 10:42:38;;;;;;;58.40;34.60;;;2.90;99.90;;;;;;5011450;28;20501;-65
2023/12/03 10:45:10;;;;;;;56.85;32.05;;;2.80;99.90;;;;;;5020442;28;20460;-63
2023/12/03 10:47:36;;;;;;;51.38;31.75;;;2.90;99.90;;;;;;5025980;28;20037;-64
2023/12/03 10:50:05;;;;;;;55.90;34.08;;;2.80;99.90;;;;;;5028087;28;20041;-64
2023/12/03 10:52:32;;;;;;;57.00;33.08;;;2.80;99.90;;;;;;5026706;28;20107;-63
2023/12/03 10:54:58;;;;;;;50.47;30.35;;;2.80;99.90;;;;;;5025967;28;20037;-63
2023/12/03 10:57:32;;;;;;;50.70;29.42;;;2.80;99.90;;;;;;5007962;28;20417;-63
2023/12/03 11:00:11;;;;;;;51.30;30.75;;;2.80;99.90;;;;;;5025296;28;20388;-63
2023/12/03 11:02:52;;;;;;;53.78;30.45;;;2.70;99.90;;;;;;5043982;28;20077;-63
2023/12/03 11:05:38;;;;;;;47.15;28.58;;;2.70;99.90;;;;;;5007361;28;20401;-64
2023/12/03 11:08:04;;;;;;;47.38;28.85;;;2.70;99.90;;;;;;5025123;28;20096;-63
2023/12/03 11:10:30;;;;;;;49.30;29.85;;;2.60;99.90;;;;;;5010587;28;20077;-63
2023/12/03 11:12:58;;;;;;;45.05;28.02;;;2.60;99.90;;;;;;5024929;28;20040;-63
2023/12/03 11:15:24;;;;;;;52.88;31.30;;;2.50;99.90;;;;;;5023920;28;20046;-62
2023/12/03 11:17:51;;;;;;;50.22;28.90;;;2.50;99.90;;;;;;5022837;28;20071;-63
2023/12/03 11:20:21;;;;;;;52.55;30.27;;;2.40;99.90;;;;;;5007584;28;20047;-63
2023/12/03 11:23:06;;;;;;;47.35;28.55;;;2.40;99.90;;;;;;5024110;28;20041;-64
2023/12/03 11:25:40;;;;;;;43.33;25.30;;;2.40;99.90;;;;;;5020802;28;20116;-63
2023/12/03 11:28:07;;;;;;;43.05;24.25;;;2.30;99.90;;;;;;5043323;28;20080;-63
2023/12/03 11:30:37;;;;;;;51.92;26.88;;;2.30;99.90;;;;;;5044088;28;20712;-64
2023/12/03 11:33:19;;;;;;;49.75;27.02;;;2.30;99.90;;;;;;5040322;28;20684;-63
2023/12/03 11:35:46;;;;;;;45.83;25.65;;;2.30;99.90;;;;;;5023303;28;20033;-63
2023/12/03 11:38:25;;;;;;;47.05;25.92;;;2.30;99.90;;;;;;5023480;28;20044;-62
2023/12/03 11:40:51;;;;;;;48.15;26.75;;;2.30;99.90;;;;;;5025182;28;20038;-63
2023/12/03 11:43:25;;;;;;;51.05;28.35;;;2.30;99.90;;;;;;5026287;28;20515;-63
2023/12/03 11:46:28;;;;;;;48.20;27.08;;;2.30;99.90;;;;;;5043081;28;20175;-62
2023/12/03 11:48:58;;;;;;;48.40;27.92;;;2.30;99.90;;;;;;5026888;28;20053;-63
2023/12/03 11:51:24;;;;;;;45.22;26.58;;;2.30;99.90;;;;;;5025406;28;20045;-62
2023/12/03 11:53:59;;;;;;;52.05;28.67;;;2.30;99.90;;;;;;5042904;28;20492;-63
2023/12/03 11:56:25;;;;;;;53.35;29.05;;;2.30;99.90;;;;;;5023864;28;20042;-62
2023/12/03 11:58:54;;;;;;;49.58;27.75;;;2.40;99.90;;;;;;5004485;28;20044;-62
2023/12/03 12:01:20;;;;;;;48.92;28.67;;;2.50;99.90;;;;;;5030590;28;20044;-62
2023/12/03 12:03:46;;;;;;;50.35;27.35;;;2.50;99.90;;;;;;5008333;28;20393;-62
2023/12/03 12:06:11;;;;;;;50.15;26.13;;;2.60;99.90;;;;;;5010491;28;20049;-63
2023/12/03 12:08:38;;;;;;;54.17;27.80;;;2.60;99.90;;;;;;5033138;28;20046;-63
2023/12/03 12:11:04;;;;;;;53.72;29.27;;;2.60;99.90;;;;;;5020384;28;20033;-62
2023/12/03 12:13:31;;;;;;;48.42;27.73;;;2.60;99.90;;;;;;5022865;28;20033;-62
2023/12/03 12:15:57;;;;;;;54.53;30.80;;;2.50;99.90;;;;;;5022317;28;20417;-62
2023/12/03 12:18:23;;;;;;;50.05;28.45;;;2.50;99.90;;;;;;5022985;28;20075;-62
2023/12/03 12:20:49;;;;;;;50.17;26.63;;;2.40;99.90;;;;;;5005432;28;20040;-63
2023/12/03 12:23:15;;;;;;;49.47;25.13;;;2.40;99.90;;;;;;5004902;28;20090;-62
2023/12/03 12:25:41;;;;;;;54.50;28.55;;;2.40;99.90;;;;;;5008946;28;20041;-63
2023/12/03 12:28:07;;;;;;;45.28;25.33;;;2.40;99.90;;;;;;5022366;28;20508;-63
2023/12/03 12:30:33;;;;;;;52.10;26.48;;;2.40;99.90;;;;;;5036168;28;20078;-63
2023/12/03 12:33:01;;;;;;;46.90;25.05;;;2.40;99.90;;;;;;5019553;28;20091;-63
2023/12/03 12:35:27;;;;;;;51.38;26.00;;;2.40;99.90;;;;;;5009344;28;20045;-62
2023/12/03 12:38:04;;;;;;;48.33;26.25;;;2.50;99.90;;;;;;5027668;28;20068;-63
2023/12/03 12:40:31;;;;;;;48.33;25.67;;;2.50;99.90;;;;;;5021551;28;20091;-64
2023/12/03 12:43:13;;;;;;;47.55;25.80;;;2.60;99.90;;;;;;5017243;28;20318;-63
2023/12/03 12:45:39;;;;;;;47.42;25.48;;;2.60;99.90;;;;;;5014866;28;20596;-63